sensor_id;sensor_type;location;lat;lon;timestamp;temperature;humidity
22742;DHT22;11538;48.884;8.696;2023-05-17T00:01:46;7.90;99.90
22742;DHT22;11538;48.884;8.696;2023-05-17T00:04:12;7.90;99.90
22742;DHT22;11538;48.884;8.696;2023-05-17T00:06:39;7.90;99.90
22742;DHT22;11538;48.884;8.696;2023-05-17T00:09:09;7.80;99.90
22742;DHT22;11538;48.884;8.696;2023-05-17T00:11:36;7.90;99.90
22742;DHT22;11538;48.884;8.696;2023-05-17T00:14:02;7.90;99.90
22742;DHT22;11538;48.884;8.696;2023-05-17T00:16:30;7.80;99.90
22742;DHT22;11538;48.884;8.696;2023-05-17T00:18:57;7.90;99.90
22742;DHT22;11538;48.884;8.696;2023-05-17T00:21:27;8.00;99.90
22742;DHT22;11538;48.884;8.696;2023-05-17T00:23:57;8.00;99.90
22742;DHT22;11538;48.884;8.696;2023-05-17T00:26:23;7.90;99.90
22742;DHT22;11538;48.884;8.696;2023-05-17T00:28:50;7.90;99.90
22742;DHT22;11538;48.884;8.696;2023-05-17T00:31:17;7.90;99.90
22742;DHT22;11538;48.884;8.696;2023-05-17T00:33:44;7.90;99.90
22742;DHT22;11538;48.884;8.696;2023-05-17T00:36:13;7.80;99.90
22742;DHT22;11538;48.884;8.696;2023-05-17T00:38:40;7.80;99.90
22742;DHT22;11538;48.884;8.696;2023-05-17T00:41:08;7.70;99.90
22742;DHT22;11538;48.884;8.696;2023-05-17T00:43:35;7.70;99.90
22742;DHT22;11538;48.884;8.696;2023-05-17T00:46:01;7.60;99.90
22742;DHT22;11538;48.884;8.696;2023-05-17T00:48:32;7.60;99.90
22742;DHT22;11538;48.884;8.696;2023-05-17T00:50:59;7.60;99.90
22742;DHT22;11538;48.884;8.696;2023-05-17T00:53:26;7.60;99.90
22742;DHT22;11538;48.884;8.696;2023-05-17T00:55:54;7.70;99.90
22742;DHT22;11538;48.884;8.696;2023-05-17T00:58:22;7.80;99.90
22742;DHT22;11538;48.884;8.696;2023-05-17T01:00:50;7.80;99.90
22742;DHT22;11538;48.884;8.696;2023-05-17T01:03:17;7.70;99.90
22742;DHT22;11538;48.884;8.696;2023-05-17T01:05:50;7.70;99.90
22742;DHT22;11538;48.884;8.696;2023-05-17T01:08:17;7.70;99.90
22742;DHT22;11538;48.884;8.696;2023-05-17T01:11:44;7.60;99.90
22742;DHT22;11538;48.884;8.696;2023-05-17T01:17:00;7.60;99.90
22742;DHT22;11538;48.884;8.696;2023-05-17T01:22:43;7.70;99.90
22742;DHT22;11538;48.884;8.696;2023-05-17T01:25:40;7.70;99.90
22742;DHT22;11538;48.884;8.696;2023-05-17T01:28:23;7.70;99.90
22742;DHT22;11538;48.884;8.696;2023-05-17T01:30:54;7.60;99.90
22742;DHT22;11538;48.884;8.696;2023-05-17T01:33:24;7.50;99.90
22742;DHT22;11538;48.884;8.696;2023-05-17T01:35:53;7.50;99.90
22742;DHT22;11538;48.884;8.696;2023-05-17T01:38:20;7.40;99.90
22742;DHT22;11538;48.884;8.696;2023-05-17T01:44:06;7.40;99.90
22742;DHT22;11538;48.884;8.696;2023-05-17T01:46:43;7.40;99.90
22742;DHT22;11538;48.884;8.696;2023-05-17T01:49:20;7.40;99.90
22742;DHT22;11538;48.884;8.696;2023-05-17T01:52:14;7.40;99.90
22742;DHT22;11538;48.884;8.696;2023-05-17T01:57:34;7.30;99.90
22742;DHT22;11538;48.884;8.696;2023-05-17T02:00:06;7.30;99.90
22742;DHT22;11538;48.884;8.696;2023-05-17T02:02:37;7.30;99.90
22742;DHT22;11538;48.884;8.696;2023-05-17T02:05:04;7.30;99.90
22742;DHT22;11538;48.884;8.696;2023-05-17T02:07:34;7.30;99.90
22742;DHT22;11538;48.884;8.696;2023-05-17T02:10:02;7.40;99.90
22742;DHT22;11538;48.884;8.696;2023-05-17T02:12:29;7.40;99.90
22742;DHT22;11538;48.884;8.696;2023-05-17T02:14:56;7.40;99.90
22742;DHT22;11538;48.884;8.696;2023-05-17T02:17:23;7.40;99.90
22742;DHT22;11538;48.884;8.696;2023-05-17T02:19:50;7.30;99.90
22742;DHT22;11538;48.884;8.696;2023-05-17T02:22:17;7.40;99.90
22742;DHT22;11538;48.884;8.696;2023-05-17T02:24:44;7.30;99.90
22742;DHT22;11538;48.884;8.696;2023-05-17T02:27:12;7.30;99.90
22742;DHT22;11538;48.884;8.696;2023-05-17T02:29:39;7.30;99.90
22742;DHT22;11538;48.884;8.696;2023-05-17T02:32:06;7.30;99.90
22742;DHT22;11538;48.884;8.696;2023-05-17T02:34:33;7.30;99.90
22742;DHT22;11538;48.884;8.696;2023-05-17T02:37:00;7.30;99.90
22742;DHT22;11538;48.884;8.696;2023-05-17T02:39:26;7.30;99.90
22742;DHT22;11538;48.884;8.696;2023-05-17T02:41:56;7.30;99.90
22742;DHT22;11538;48.884;8.696;2023-05-17T02:44:23;7.20;99.90
22742;DHT22;11538;48.884;8.696;2023-05-17T02:46:50;7.10;99.90
22742;DHT22;11538;48.884;8.696;2023-05-17T02:49:17;7.20;99.90
22742;DHT22;11538;48.884;8.696;2023-05-17T02:51:45;7.10;99.90
22742;DHT22;11538;48.884;8.696;2023-05-17T02:54:14;7.20;99.90
22742;DHT22;11538;48.884;8.696;2023-05-17T02:56:41;7.20;99.90
22742;DHT22;11538;48.884;8.696;2023-05-17T02:59:10;7.10;99.90
22742;DHT22;11538;48.884;8.696;2023-05-17T03:01:36;7.10;99.90
22742;DHT22;11538;48.884;8.696;2023-05-17T03:04:03;7.00;99.90
22742;DHT22;11538;48.884;8.696;2023-05-17T03:06:30;7.00;99.90
22742;DHT22;11538;48.884;8.696;2023-05-17T03:08:57;7.00;99.90
22742;DHT22;11538;48.884;8.696;2023-05-17T03:11:24;7.00;99.90
22742;DHT22;11538;48.884;8.696;2023-05-17T03:13:52;7.00;99.90
22742;DHT22;11538;48.884;8.696;2023-05-17T03:16:19;6.90;99.90
22742;DHT22;11538;48.884;8.696;2023-05-17T03:18:46;6.90;99.90
22742;DHT22;11538;48.884;8.696;2023-05-17T03:21:13;6.90;99.90
22742;DHT22;11538;48.884;8.696;2023-05-17T03:23:40;6.90;99.90
22742;DHT22;11538;48.884;8.696;2023-05-17T03:26:07;6.90;99.90
22742;DHT22;11538;48.884;8.696;2023-05-17T03:28:34;6.90;99.90
22742;DHT22;11538;48.884;8.696;2023-05-17T03:31:01;6.90;99.90
22742;DHT22;11538;48.884;8.696;2023-05-17T03:33:28;6.90;99.90
22742;DHT22;11538;48.884;8.696;2023-05-17T03:35:55;6.90;99.90
22742;DHT22;11538;48.884;8.696;2023-05-17T03:38:22;6.90;99.90
22742;DHT22;11538;48.884;8.696;2023-05-17T03:40:50;6.90;99.90
22742;DHT22;11538;48.884;8.696;2023-05-17T03:43:18;6.90;99.90
22742;DHT22;11538;48.884;8.696;2023-05-17T03:45:48;6.90;99.90
22742;DHT22;11538;48.884;8.696;2023-05-17T03:48:15;6.90;99.90
22742;DHT22;11538;48.884;8.696;2023-05-17T03:50:42;6.90;99.90
22742;DHT22;11538;48.884;8.696;2023-05-17T03:53:09;6.90;99.90
22742;DHT22;11538;48.884;8.696;2023-05-17T03:55:36;6.80;99.90
22742;DHT22;11538;48.884;8.696;2023-05-17T03:58:03;6.80;99.90
22742;DHT22;11538;48.884;8.696;2023-05-17T04:00:30;6.70;99.90
22742;DHT22;11538;48.884;8.696;2023-05-17T04:02:57;6.70;99.90
22742;DHT22;11538;48.884;8.696;2023-05-17T04:05:24;6.80;99.90
22742;DHT22;11538;48.884;8.696;2023-05-17T04:07:53;6.80;99.90
22742;DHT22;11538;48.884;8.696;2023-05-17T04:10:20;6.80;99.90
22742;DHT22;11538;48.884;8.696;2023-05-17T04:12:48;6.80;99.90
22742;DHT22;11538;48.884;8.696;2023-05-17T04:15:15;6.80;99.90
22742;DHT22;11538;48.884;8.696;2023-05-17T04:17:42;6.80;99.90
22742;DHT22;11538;48.884;8.696;2023-05-17T04:20:09;6.80;99.90
22742;DHT22;11538;48.884;8.696;2023-05-17T04:22:37;6.80;99.90
22742;DHT22;11538;48.884;8.696;2023-05-17T04:25:04;6.80;99.90
22742;DHT22;11538;48.884;8.696;2023-05-17T04:27:31;6.80;99.90
22742;DHT22;11538;48.884;8.696;2023-05-17T04:29:58;6.80;99.90
22742;DHT22;11538;48.884;8.696;2023-05-17T04:32:25;6.70;99.90
22742;DHT22;11538;48.884;8.696;2023-05-17T04:34:53;6.70;99.90
22742;DHT22;11538;48.884;8.696;2023-05-17T04:37:21;6.70;99.90
22742;DHT22;11538;48.884;8.696;2023-05-17T04:39:48;6.80;99.90
22742;DHT22;11538;48.884;8.696;2023-05-17T04:42:17;6.80;99.90
22742;DHT22;11538;48.884;8.696;2023-05-17T04:44:44;6.90;99.90
22742;DHT22;11538;48.884;8.696;2023-05-17T04:47:11;6.90;99.90
22742;DHT22;11538;48.884;8.696;2023-05-17T04:49:38;7.00;99.90
22742;DHT22;11538;48.884;8.696;2023-05-17T04:52:05;7.00;99.90
22742;DHT22;11538;48.884;8.696;2023-05-17T04:54:31;7.00;99.90
22742;DHT22;11538;48.884;8.696;2023-05-17T04:56:58;7.10;99.90
22742;DHT22;11538;48.884;8.696;2023-05-17T04:59:25;7.10;99.90
22742;DHT22;11538;48.884;8.696;2023-05-17T05:01:52;7.10;99.90
22742;DHT22;11538;48.884;8.696;2023-05-17T05:04:19;7.20;99.90
22742;DHT22;11538;48.884;8.696;2023-05-17T05:06:46;7.30;99.90
22742;DHT22;11538;48.884;8.696;2023-05-17T05:09:13;7.30;99.90
22742;DHT22;11538;48.884;8.696;2023-05-17T05:11:41;7.40;99.90
22742;DHT22;11538;48.884;8.696;2023-05-17T05:14:08;7.40;99.90
22742;DHT22;11538;48.884;8.696;2023-05-17T05:16:34;7.40;99.90
22742;DHT22;11538;48.884;8.696;2023-05-17T05:19:02;7.60;99.90
22742;DHT22;11538;48.884;8.696;2023-05-17T05:21:30;7.60;99.90
22742;DHT22;11538;48.884;8.696;2023-05-17T05:23:56;7.70;99.90
22742;DHT22;11538;48.884;8.696;2023-05-17T05:26:23;7.80;99.90
22742;DHT22;11538;48.884;8.696;2023-05-17T05:28:50;7.80;99.90
22742;DHT22;11538;48.884;8.696;2023-05-17T05:31:17;7.90;99.90
22742;DHT22;11538;48.884;8.696;2023-05-17T05:33:44;8.00;99.90
22742;DHT22;11538;48.884;8.696;2023-05-17T05:36:11;8.20;99.90
22742;DHT22;11538;48.884;8.696;2023-05-17T05:38:38;8.30;99.90
22742;DHT22;11538;48.884;8.696;2023-05-17T05:41:05;8.30;99.90
22742;DHT22;11538;48.884;8.696;2023-05-17T05:43:32;8.40;99.90
22742;DHT22;11538;48.884;8.696;2023-05-17T05:46:01;8.50;99.90
22742;DHT22;11538;48.884;8.696;2023-05-17T05:48:28;8.60;99.90
22742;DHT22;11538;48.884;8.696;2023-05-17T05:50:55;8.70;99.90
22742;DHT22;11538;48.884;8.696;2023-05-17T05:53:22;8.80;99.90
22742;DHT22;11538;48.884;8.696;2023-05-17T05:55:49;8.90;99.90
22742;DHT22;11538;48.884;8.696;2023-05-17T05:58:16;9.00;99.90
22742;DHT22;11538;48.884;8.696;2023-05-17T06:00:43;9.10;99.90
22742;DHT22;11538;48.884;8.696;2023-05-17T06:03:10;9.20;99.90
22742;DHT22;11538;48.884;8.696;2023-05-17T06:05:37;9.20;99.90
22742;DHT22;11538;48.884;8.696;2023-05-17T06:08:05;9.30;99.90
22742;DHT22;11538;48.884;8.696;2023-05-17T06:10:34;9.40;99.90
22742;DHT22;11538;48.884;8.696;2023-05-17T06:13:01;9.50;99.90
22742;DHT22;11538;48.884;8.696;2023-05-17T06:15:30;9.60;99.90
22742;DHT22;11538;48.884;8.696;2023-05-17T06:17:58;9.60;99.90
22742;DHT22;11538;48.884;8.696;2023-05-17T06:20:25;9.70;99.90
22742;DHT22;11538;48.884;8.696;2023-05-17T06:22:52;9.80;99.90
22742;DHT22;11538;48.884;8.696;2023-05-17T06:25:19;9.90;99.90
22742;DHT22;11538;48.884;8.696;2023-05-17T06:27:46;9.90;99.90
22742;DHT22;11538;48.884;8.696;2023-05-17T06:30:13;10.00;99.90
22742;DHT22;11538;48.884;8.696;2023-05-17T06:32:40;10.10;99.90
22742;DHT22;11538;48.884;8.696;2023-05-17T06:35:08;10.20;99.90
22742;DHT22;11538;48.884;8.696;2023-05-17T06:37:35;10.30;99.90
22742;DHT22;11538;48.884;8.696;2023-05-17T06:40:04;10.40;99.90
22742;DHT22;11538;48.884;8.696;2023-05-17T06:42:41;10.50;99.90
22742;DHT22;11538;48.884;8.696;2023-05-17T06:45:09;10.50;99.90
22742;DHT22;11538;48.884;8.696;2023-05-17T06:47:36;10.60;99.90
22742;DHT22;11538;48.884;8.696;2023-05-17T06:50:04;10.70;99.90
22742;DHT22;11538;48.884;8.696;2023-05-17T06:52:32;10.70;99.90
22742;DHT22;11538;48.884;8.696;2023-05-17T06:54:59;10.80;99.90
22742;DHT22;11538;48.884;8.696;2023-05-17T06:57:26;10.90;99.90
22742;DHT22;11538;48.884;8.696;2023-05-17T06:59:53;10.90;99.90
22742;DHT22;11538;48.884;8.696;2023-05-17T07:02:20;11.00;99.90
22742;DHT22;11538;48.884;8.696;2023-05-17T07:04:47;11.10;99.90
22742;DHT22;11538;48.884;8.696;2023-05-17T07:07:15;11.20;99.90
22742;DHT22;11538;48.884;8.696;2023-05-17T07:09:42;11.30;99.90
22742;DHT22;11538;48.884;8.696;2023-05-17T07:12:09;11.30;99.90
22742;DHT22;11538;48.884;8.696;2023-05-17T07:14:35;11.40;99.90
22742;DHT22;11538;48.884;8.696;2023-05-17T07:17:03;11.40;99.90
22742;DHT22;11538;48.884;8.696;2023-05-17T07:19:30;11.50;99.90
22742;DHT22;11538;48.884;8.696;2023-05-17T07:21:57;11.50;99.90
22742;DHT22;11538;48.884;8.696;2023-05-17T07:24:24;11.60;99.90
22742;DHT22;11538;48.884;8.696;2023-05-17T07:26:51;11.60;99.90
22742;DHT22;11538;48.884;8.696;2023-05-17T07:29:18;11.70;99.90
22742;DHT22;11538;48.884;8.696;2023-05-17T07:31:45;11.80;99.90
22742;DHT22;11538;48.884;8.696;2023-05-17T07:34:12;11.90;99.90
22742;DHT22;11538;48.884;8.696;2023-05-17T07:36:40;12.00;99.90
22742;DHT22;11538;48.884;8.696;2023-05-17T07:39:07;12.00;99.90
22742;DHT22;11538;48.884;8.696;2023-05-17T07:41:35;12.10;99.90
22742;DHT22;11538;48.884;8.696;2023-05-17T07:44:02;12.10;99.90
22742;DHT22;11538;48.884;8.696;2023-05-17T07:46:29;12.20;99.90
22742;DHT22;11538;48.884;8.696;2023-05-17T07:48:56;12.20;99.90
22742;DHT22;11538;48.884;8.696;2023-05-17T07:51:24;12.40;99.90
22742;DHT22;11538;48.884;8.696;2023-05-17T07:53:51;12.40;99.90
22742;DHT22;11538;48.884;8.696;2023-05-17T07:56:19;12.50;99.90
22742;DHT22;11538;48.884;8.696;2023-05-17T07:58:46;12.50;99.90
22742;DHT22;11538;48.884;8.696;2023-05-17T08:01:12;12.60;99.90
22742;DHT22;11538;48.884;8.696;2023-05-17T08:03:39;12.60;99.90
22742;DHT22;11538;48.884;8.696;2023-05-17T08:06:15;12.60;99.90
22742;DHT22;11538;48.884;8.696;2023-05-17T08:08:42;12.60;99.90
22742;DHT22;11538;48.884;8.696;2023-05-17T08:11:12;12.60;99.90
22742;DHT22;11538;48.884;8.696;2023-05-17T08:13:39;12.70;99.90
22742;DHT22;11538;48.884;8.696;2023-05-17T08:16:07;12.80;99.90
22742;DHT22;11538;48.884;8.696;2023-05-17T08:18:41;12.90;99.90
22742;DHT22;11538;48.884;8.696;2023-05-17T08:21:09;13.10;99.90
22742;DHT22;11538;48.884;8.696;2023-05-17T08:23:39;13.30;99.90
22742;DHT22;11538;48.884;8.696;2023-05-17T08:26:07;13.50;99.90
22742;DHT22;11538;48.884;8.696;2023-05-17T08:28:34;13.60;99.90
22742;DHT22;11538;48.884;8.696;2023-05-17T08:31:02;13.60;99.90
22742;DHT22;11538;48.884;8.696;2023-05-17T08:33:29;13.60;99.90
22742;DHT22;11538;48.884;8.696;2023-05-17T08:35:59;13.60;99.90
22742;DHT22;11538;48.884;8.696;2023-05-17T08:38:28;13.70;99.90
22742;DHT22;11538;48.884;8.696;2023-05-17T08:40:55;13.90;99.90
22742;DHT22;11538;48.884;8.696;2023-05-17T08:43:25;14.10;99.90
22742;DHT22;11538;48.884;8.696;2023-05-17T08:45:54;14.20;99.90
22742;DHT22;11538;48.884;8.696;2023-05-17T08:48:27;14.30;99.90
22742;DHT22;11538;48.884;8.696;2023-05-17T08:50:57;14.40;99.90
22742;DHT22;11538;48.884;8.696;2023-05-17T08:53:25;14.40;99.90
22742;DHT22;11538;48.884;8.696;2023-05-17T08:55:59;14.40;99.90
22742;DHT22;11538;48.884;8.696;2023-05-17T08:58:33;14.40;99.90
22742;DHT22;11538;48.884;8.696;2023-05-17T09:01:22;14.40;99.90
22742;DHT22;11538;48.884;8.696;2023-05-17T09:03:52;14.40;99.90
22742;DHT22;11538;48.884;8.696;2023-05-17T09:06:20;14.40;99.90
22742;DHT22;11538;48.884;8.696;2023-05-17T09:08:52;14.40;99.90
22742;DHT22;11538;48.884;8.696;2023-05-17T09:14:03;14.40;99.90
22742;DHT22;11538;48.884;8.696;2023-05-17T09:16:36;14.30;99.90
22742;DHT22;11538;48.884;8.696;2023-05-17T09:19:05;14.20;99.90
22742;DHT22;11538;48.884;8.696;2023-05-17T09:21:34;14.20;99.90
22742;DHT22;11538;48.884;8.696;2023-05-17T09:24:02;14.10;99.90
22742;DHT22;11538;48.884;8.696;2023-05-17T09:26:41;14.10;99.90
22742;DHT22;11538;48.884;8.696;2023-05-17T09:29:14;14.00;99.90
22742;DHT22;11538;48.884;8.696;2023-05-17T09:31:42;14.00;99.90
22742;DHT22;11538;48.884;8.696;2023-05-17T09:34:11;14.00;99.90
22742;DHT22;11538;48.884;8.696;2023-05-17T09:36:43;14.00;99.90
22742;DHT22;11538;48.884;8.696;2023-05-17T09:39:10;14.00;99.90
22742;DHT22;11538;48.884;8.696;2023-05-17T09:41:44;14.00;99.90
22742;DHT22;11538;48.884;8.696;2023-05-17T09:44:16;14.00;99.90
22742;DHT22;11538;48.884;8.696;2023-05-17T09:46:45;14.10;99.90
22742;DHT22;11538;48.884;8.696;2023-05-17T09:49:14;14.10;99.90
22742;DHT22;11538;48.884;8.696;2023-05-17T09:51:45;14.10;99.90
22742;DHT22;11538;48.884;8.696;2023-05-17T09:54:14;14.10;99.90
22742;DHT22;11538;48.884;8.696;2023-05-17T09:56:43;14.10;99.90
22742;DHT22;11538;48.884;8.696;2023-05-17T09:59:12;14.10;99.90
22742;DHT22;11538;48.884;8.696;2023-05-17T10:01:42;14.10;99.90
22742;DHT22;11538;48.884;8.696;2023-05-17T10:04:11;14.10;99.90
22742;DHT22;11538;48.884;8.696;2023-05-17T10:06:40;14.10;99.90
22742;DHT22;11538;48.884;8.696;2023-05-17T10:09:15;14.20;99.90
22742;DHT22;11538;48.884;8.696;2023-05-17T10:11:45;14.30;99.90
22742;DHT22;11538;48.884;8.696;2023-05-17T10:14:31;14.40;99.90
22742;DHT22;11538;48.884;8.696;2023-05-17T10:16:59;14.50;99.90
22742;DHT22;11538;48.884;8.696;2023-05-17T10:19:29;14.50;99.90
22742;DHT22;11538;48.884;8.696;2023-05-17T10:21:57;14.60;99.90
22742;DHT22;11538;48.884;8.696;2023-05-17T10:24:45;14.60;99.90
22742;DHT22;11538;48.884;8.696;2023-05-17T10:27:15;14.70;99.90
22742;DHT22;11538;48.884;8.696;2023-05-17T10:29:43;14.60;99.90
22742;DHT22;11538;48.884;8.696;2023-05-17T10:32:15;14.70;99.90
22742;DHT22;11538;48.884;8.696;2023-05-17T10:34:45;14.70;99.90
22742;DHT22;11538;48.884;8.696;2023-05-17T10:37:32;14.80;99.90
22742;DHT22;11538;48.884;8.696;2023-05-17T10:40:00;14.70;99.90
22742;DHT22;11538;48.884;8.696;2023-05-17T10:42:27;14.80;99.90
22742;DHT22;11538;48.884;8.696;2023-05-17T10:44:59;14.80;99.90
22742;DHT22;11538;48.884;8.696;2023-05-17T10:47:33;14.90;99.90
22742;DHT22;11538;48.884;8.696;2023-05-17T10:50:01;14.90;99.90
22742;DHT22;11538;48.884;8.696;2023-05-17T10:52:37;14.90;99.90
22742;DHT22;11538;48.884;8.696;2023-05-17T10:55:10;14.90;99.90
22742;DHT22;11538;48.884;8.696;2023-05-17T10:57:38;14.90;99.90
22742;DHT22;11538;48.884;8.696;2023-05-17T11:00:20;14.90;99.90
22742;DHT22;11538;48.884;8.696;2023-05-17T11:03:16;15.00;99.90
22742;DHT22;11538;48.884;8.696;2023-05-17T11:09:14;15.10;99.90
22742;DHT22;11538;48.884;8.696;2023-05-17T11:12:05;15.10;99.90
22742;DHT22;11538;48.884;8.696;2023-05-17T11:14:46;15.10;99.90
22742;DHT22;11538;48.884;8.696;2023-05-17T11:17:16;15.10;99.90
22742;DHT22;11538;48.884;8.696;2023-05-17T11:20:05;15.10;99.90
22742;DHT22;11538;48.884;8.696;2023-05-17T11:22:54;15.10;99.90
22742;DHT22;11538;48.884;8.696;2023-05-17T11:25:31;15.00;99.90
22742;DHT22;11538;48.884;8.696;2023-05-17T11:28:21;15.00;99.90
22742;DHT22;11538;48.884;8.696;2023-05-17T11:30:48;15.00;99.90
22742;DHT22;11538;48.884;8.696;2023-05-17T11:33:19;15.00;99.90
22742;DHT22;11538;48.884;8.696;2023-05-17T11:36:04;15.10;99.90
22742;DHT22;11538;48.884;8.696;2023-05-17T11:38:38;15.20;99.90
22742;DHT22;11538;48.884;8.696;2023-05-17T11:41:16;15.30;99.90
22742;DHT22;11538;48.884;8.696;2023-05-17T11:43:48;15.50;99.90
22742;DHT22;11538;48.884;8.696;2023-05-17T11:46:20;15.70;99.90
22742;DHT22;11538;48.884;8.696;2023-05-17T11:48:51;15.80;99.90
22742;DHT22;11538;48.884;8.696;2023-05-17T11:51:19;15.90;99.90
22742;DHT22;11538;48.884;8.696;2023-05-17T11:53:54;15.90;99.90
22742;DHT22;11538;48.884;8.696;2023-05-17T11:56:25;16.00;99.90
22742;DHT22;11538;48.884;8.696;2023-05-17T11:59:09;16.10;99.90
22742;DHT22;11538;48.884;8.696;2023-05-17T12:01:46;16.20;99.90
22742;DHT22;11538;48.884;8.696;2023-05-17T12:04:23;16.20;99.90
22742;DHT22;11538;48.884;8.696;2023-05-17T12:06:54;16.30;99.90
22742;DHT22;11538;48.884;8.696;2023-05-17T12:09:23;16.30;99.90
22742;DHT22;11538;48.884;8.696;2023-05-17T12:11:52;16.40;99.90
22742;DHT22;11538;48.884;8.696;2023-05-17T12:14:19;16.50;99.90
22742;DHT22;11538;48.884;8.696;2023-05-17T12:16:52;16.50;99.90
22742;DHT22;11538;48.884;8.696;2023-05-17T12:19:24;16.50;99.90
22742;DHT22;11538;48.884;8.696;2023-05-17T12:21:52;16.60;99.90
22742;DHT22;11538;48.884;8.696;2023-05-17T12:24:19;16.60;99.90
22742;DHT22;11538;48.884;8.696;2023-05-17T12:26:47;16.60;99.90
22742;DHT22;11538;48.884;8.696;2023-05-17T12:29:17;16.70;99.90
22742;DHT22;11538;48.884;8.696;2023-05-17T12:31:49;16.70;99.90
22742;DHT22;11538;48.884;8.696;2023-05-17T12:34:19;16.80;99.90
22742;DHT22;11538;48.884;8.696;2023-05-17T12:36:47;16.80;99.90
22742;DHT22;11538;48.884;8.696;2023-05-17T12:39:15;16.90;99.90
22742;DHT22;11538;48.884;8.696;2023-05-17T12:41:43;16.80;99.90
22742;DHT22;11538;48.884;8.696;2023-05-17T12:44:11;16.80;99.90
22742;DHT22;11538;48.884;8.696;2023-05-17T12:46:43;16.80;99.90
22742;DHT22;11538;48.884;8.696;2023-05-17T12:49:11;16.80;99.90
22742;DHT22;11538;48.884;8.696;2023-05-17T12:51:43;16.70;99.90
22742;DHT22;11538;48.884;8.696;2023-05-17T12:54:12;16.60;99.90
22742;DHT22;11538;48.884;8.696;2023-05-17T12:56:42;16.50;99.90
22742;DHT22;11538;48.884;8.696;2023-05-17T12:59:11;16.40;99.90
22742;DHT22;11538;48.884;8.696;2023-05-17T13:01:47;16.30;99.90
22742;DHT22;11538;48.884;8.696;2023-05-17T13:04:17;16.30;99.90
22742;DHT22;11538;48.884;8.696;2023-05-17T13:06:49;16.20;99.90
22742;DHT22;11538;48.884;8.696;2023-05-17T13:09:23;16.20;99.90
22742;DHT22;11538;48.884;8.696;2023-05-17T13:11:58;16.20;99.90
22742;DHT22;11538;48.884;8.696;2023-05-17T13:14:46;16.30;99.90
22742;DHT22;11538;48.884;8.696;2023-05-17T13:17:24;16.30;99.90
22742;DHT22;11538;48.884;8.696;2023-05-17T13:20:06;16.20;99.90
22742;DHT22;11538;48.884;8.696;2023-05-17T13:22:46;16.20;99.90
22742;DHT22;11538;48.884;8.696;2023-05-17T13:25:13;16.20;99.90
22742;DHT22;11538;48.884;8.696;2023-05-17T13:27:41;16.10;99.90
22742;DHT22;11538;48.884;8.696;2023-05-17T13:30:12;16.10;99.90
22742;DHT22;11538;48.884;8.696;2023-05-17T13:32:41;16.10;99.90
22742;DHT22;11538;48.884;8.696;2023-05-17T13:35:09;16.00;99.90
22742;DHT22;11538;48.884;8.696;2023-05-17T13:37:36;16.10;99.90
22742;DHT22;11538;48.884;8.696;2023-05-17T13:40:03;16.10;99.90
22742;DHT22;11538;48.884;8.696;2023-05-17T13:42:31;16.20;99.90
22742;DHT22;11538;48.884;8.696;2023-05-17T13:44:58;16.20;99.90
22742;DHT22;11538;48.884;8.696;2023-05-17T13:47:27;16.30;99.90
22742;DHT22;11538;48.884;8.696;2023-05-17T13:49:58;16.30;99.90
22742;DHT22;11538;48.884;8.696;2023-05-17T13:52:26;16.40;99.90
22742;DHT22;11538;48.884;8.696;2023-05-17T13:54:53;16.50;99.90
22742;DHT22;11538;48.884;8.696;2023-05-17T13:57:20;16.60;99.90
22742;DHT22;11538;48.884;8.696;2023-05-17T13:59:47;16.80;99.90
22742;DHT22;11538;48.884;8.696;2023-05-17T14:02:14;16.90;99.90
22742;DHT22;11538;48.884;8.696;2023-05-17T14:04:41;17.00;99.90
22742;DHT22;11538;48.884;8.696;2023-05-17T14:07:08;17.20;99.90
22742;DHT22;11538;48.884;8.696;2023-05-17T14:09:35;17.30;99.90
22742;DHT22;11538;48.884;8.696;2023-05-17T14:12:02;17.60;99.90
22742;DHT22;11538;48.884;8.696;2023-05-17T14:14:29;18.10;99.90
22742;DHT22;11538;48.884;8.696;2023-05-17T14:16:57;18.40;99.90
22742;DHT22;11538;48.884;8.696;2023-05-17T14:19:24;18.40;99.90
22742;DHT22;11538;48.884;8.696;2023-05-17T14:21:54;18.40;99.90
22742;DHT22;11538;48.884;8.696;2023-05-17T14:24:21;18.30;99.90
22742;DHT22;11538;48.884;8.696;2023-05-17T14:26:48;18.20;99.90
22742;DHT22;11538;48.884;8.696;2023-05-17T14:29:15;18.00;99.90
22742;DHT22;11538;48.884;8.696;2023-05-17T14:31:42;17.90;99.90
22742;DHT22;11538;48.884;8.696;2023-05-17T14:34:09;17.80;99.90
22742;DHT22;11538;48.884;8.696;2023-05-17T14:36:36;17.80;99.90
22742;DHT22;11538;48.884;8.696;2023-05-17T14:39:03;17.80;99.90
22742;DHT22;11538;48.884;8.696;2023-05-17T14:41:31;17.90;99.90
22742;DHT22;11538;48.884;8.696;2023-05-17T14:43:58;18.10;99.90
22742;DHT22;11538;48.884;8.696;2023-05-17T14:46:25;18.20;99.90
22742;DHT22;11538;48.884;8.696;2023-05-17T14:48:52;18.30;99.90
22742;DHT22;11538;48.884;8.696;2023-05-17T14:51:21;18.40;99.90
22742;DHT22;11538;48.884;8.696;2023-05-17T14:53:48;18.40;99.90
22742;DHT22;11538;48.884;8.696;2023-05-17T14:56:15;18.70;99.90
22742;DHT22;11538;48.884;8.696;2023-05-17T14:58:43;18.90;99.90
22742;DHT22;11538;48.884;8.696;2023-05-17T15:01:10;18.90;99.90
22742;DHT22;11538;48.884;8.696;2023-05-17T15:03:40;18.80;99.90
22742;DHT22;11538;48.884;8.696;2023-05-17T15:06:07;18.60;99.90
22742;DHT22;11538;48.884;8.696;2023-05-17T15:08:37;18.60;99.90
22742;DHT22;11538;48.884;8.696;2023-05-17T15:11:04;18.50;99.90
22742;DHT22;11538;48.884;8.696;2023-05-17T15:13:31;18.50;99.90
22742;DHT22;11538;48.884;8.696;2023-05-17T15:16:01;18.60;99.90
22742;DHT22;11538;48.884;8.696;2023-05-17T15:18:29;18.60;99.90
22742;DHT22;11538;48.884;8.696;2023-05-17T15:20:56;18.60;99.90
22742;DHT22;11538;48.884;8.696;2023-05-17T15:23:23;18.50;99.90
22742;DHT22;11538;48.884;8.696;2023-05-17T15:25:52;18.40;99.90
22742;DHT22;11538;48.884;8.696;2023-05-17T15:28:19;18.40;99.90
22742;DHT22;11538;48.884;8.696;2023-05-17T15:30:46;18.60;99.90
22742;DHT22;11538;48.884;8.696;2023-05-17T15:33:13;18.70;99.90
22742;DHT22;11538;48.884;8.696;2023-05-17T15:35:40;18.80;99.90
22742;DHT22;11538;48.884;8.696;2023-05-17T15:38:07;18.90;99.90
22742;DHT22;11538;48.884;8.696;2023-05-17T15:40:34;19.10;99.90
22742;DHT22;11538;48.884;8.696;2023-05-17T15:43:01;19.00;99.90
22742;DHT22;11538;48.884;8.696;2023-05-17T15:45:28;18.80;99.90
22742;DHT22;11538;48.884;8.696;2023-05-17T15:47:55;18.60;99.90
22742;DHT22;11538;48.884;8.696;2023-05-17T15:50:22;18.30;99.90
22742;DHT22;11538;48.884;8.696;2023-05-17T15:52:49;18.20;99.90
22742;DHT22;11538;48.884;8.696;2023-05-17T15:55:16;18.00;99.90
22742;DHT22;11538;48.884;8.696;2023-05-17T15:57:44;17.90;99.90
22742;DHT22;11538;48.884;8.696;2023-05-17T16:00:12;17.80;99.90
22742;DHT22;11538;48.884;8.696;2023-05-17T16:02:39;17.60;99.90
22742;DHT22;11538;48.884;8.696;2023-05-17T16:05:06;17.40;99.90
22742;DHT22;11538;48.884;8.696;2023-05-17T16:07:34;17.30;99.90
22742;DHT22;11538;48.884;8.696;2023-05-17T16:10:01;17.20;99.90